Terminal Aerodrome Forecast
Issued by NWS

Home | Current Version | Previous Version | Graphics & Text | Print | Product List | Glossary On
Versions: 1 2 3 4 5 6 7 8 9 10 11 12 13
000
FTUS43 KIWX 232300
TAFSBN
TAF
KSBN 232320Z 2400/2424 18005KT P6SM BKN150
     FM240500 19005KT P6SM BKN050 OVC100
     FM241200 22007KT P6SM BKN025=

USA.gov is the U.S. government's official web portal to all federal, state and local government web resources and services.